Time;durP1;ratioP1;P1;durP2;ratioP2;P2;SDS_P1;SDS_P2;PMS_P1;PMS_P2;Temp;Humidity;BMP_temperature;BMP_pressure;BME280_temperature;BME280_humidity;BME280_pressure;Samples;Min_cycle;Max_cycle;Signal;HPM_P1;HPM_P2
2023/04/30 00:01:41;;;;;;;18.93;12.53;;;8.20;99.90;;;;;;4915763;29;20214;-84
2023/04/30 00:04:08;;;;;;;23.30;13.70;;;8.20;99.90;;;;;;4915527;29;20223;-84
2023/04/30 00:06:35;;;;;;;21.23;13.30;;;8.20;99.90;;;;;;4915378;29;20216;-84
2023/04/30 00:09:02;;;;;;;22.20;13.07;;;8.10;99.90;;;;;;4915111;29;20238;-84
2023/04/30 00:11:28;;;;;;;24.20;13.43;;;8.10;99.90;;;;;;4915319;29;20234;-84
2023/04/30 00:13:55;;;;;;;22.67;13.97;;;8.00;99.90;;;;;;4910957;29;20199;-83
2023/04/30 00:16:22;;;;;;;21.47;13.50;;;8.00;99.90;;;;;;4915640;29;20202;-84
2023/04/30 00:18:49;;;;;;;21.87;12.50;;;7.90;99.90;;;;;;4914612;29;20302;-84
2023/04/30 00:21:16;;;;;;;21.17;13.63;;;7.90;99.90;;;;;;4891312;29;20208;-85
2023/04/30 00:23:43;;;;;;;19.10;12.77;;;7.90;99.90;;;;;;4915345;29;20290;-84
2023/04/30 00:26:09;;;;;;;21.50;12.63;;;7.90;99.90;;;;;;4913335;29;20288;-85
2023/04/30 00:28:36;;;;;;;22.03;13.17;;;7.80;99.90;;;;;;4921022;29;20242;-83
2023/04/30 00:31:05;;;;;;;24.67;14.23;;;7.80;99.90;;;;;;4915253;29;20315;-84
2023/04/30 00:33:32;;;;;;;23.10;13.30;;;7.80;99.90;;;;;;4918044;29;20239;-83
2023/04/30 00:35:59;;;;;;;25.90;15.37;;;7.70;99.90;;;;;;4908062;29;20293;-83
2023/04/30 00:38:25;;;;;;;20.87;13.17;;;7.80;99.90;;;;;;4916538;29;20224;-85
2023/04/30 00:40:52;;;;;;;20.13;13.63;;;7.80;99.90;;;;;;4914984;29;20305;-84
2023/04/30 00:43:19;;;;;;;19.87;12.07;;;7.70;99.90;;;;;;4914577;29;20256;-83
2023/04/30 00:45:52;;;;;;;21.20;14.07;;;7.70;99.90;;;;;;4915501;29;20306;-85
2023/04/30 00:48:19;;;;;;;22.00;12.27;;;7.70;99.90;;;;;;4914350;29;20721;-84
2023/04/30 00:50:46;;;;;;;22.40;12.70;;;7.60;99.90;;;;;;4914150;29;20206;-82
2023/04/30 00:53:13;;;;;;;18.97;11.90;;;7.60;99.90;;;;;;4914504;29;20305;-83
2023/04/30 00:55:40;;;;;;;19.67;11.73;;;7.60;99.90;;;;;;4915102;29;20298;-85
2023/04/30 00:58:07;;;;;;;19.00;12.13;;;7.60;99.90;;;;;;4916937;29;20201;-85
2023/04/30 01:00:35;;;;;;;26.03;13.53;;;7.50;99.90;;;;;;4897284;29;20671;-84
2023/04/30 01:03:02;;;;;;;18.27;11.80;;;7.50;99.90;;;;;;4916546;29;20218;-83
2023/04/30 01:05:29;;;;;;;19.77;12.43;;;7.50;99.90;;;;;;4897297;29;20211;-84
2023/04/30 01:07:56;;;;;;;18.50;11.73;;;7.50;99.90;;;;;;4910834;29;20232;-85
2023/04/30 01:10:31;;;;;;;18.27;11.43;;;7.40;99.90;;;;;;4914025;29;20653;-83
2023/04/30 01:13:03;;;;;;;21.13;12.60;;;7.40;99.90;;;;;;4899751;29;20281;-86
2023/04/30 01:15:41;;;;;;;20.47;11.77;;;7.30;99.90;;;;;;4913831;29;20285;-84
2023/04/30 01:18:16;;;;;;;17.80;11.70;;;7.30;99.90;;;;;;4915061;29;20608;-84
2023/04/30 01:20:49;;;;;;;19.17;11.80;;;7.30;99.90;;;;;;4909532;29;20324;-83
2023/04/30 01:23:34;;;;;;;17.47;12.03;;;7.20;99.90;;;;;;4918224;29;20203;-83
2023/04/30 01:26:11;;;;;;;20.63;11.73;;;7.20;99.90;;;;;;4915215;29;20215;-83
2023/04/30 01:28:43;;;;;;;20.17;11.50;;;7.20;99.90;;;;;;4900126;29;20233;-82
2023/04/30 01:31:18;;;;;;;18.83;11.40;;;7.10;99.90;;;;;;4915319;29;20264;-84
2023/04/30 01:33:45;;;;;;;18.53;11.43;;;7.10;99.90;;;;;;4921632;29;20691;-84
2023/04/30 01:36:23;;;;;;;17.30;11.03;;;7.00;99.90;;;;;;4927376;29;20317;-83
2023/04/30 01:39:08;;;;;;;17.00;11.03;;;7.00;99.90;;;;;;4898068;29;20245;-83
2023/04/30 01:42:06;;;;;;;17.57;12.40;;;7.00;99.90;;;;;;4910637;29;20343;-85
2023/04/30 01:45:18;;;;;;;18.17;10.13;;;6.90;99.90;;;;;;4909951;29;20232;-84
2023/04/30 01:47:58;;;;;;;18.40;11.03;;;6.90;99.90;;;;;;4898238;29;20236;-85
2023/04/30 01:50:41;;;;;;;15.27;10.40;;;6.80;99.90;;;;;;4913621;29;20219;-85
2023/04/30 01:53:20;;;;;;;17.07;10.53;;;6.80;99.90;;;;;;4911208;29;20210;-85
2023/04/30 01:56:01;;;;;;;20.03;10.97;;;6.80;99.90;;;;;;4896261;29;20268;-84
2023/04/30 01:58:29;;;;;;;18.27;10.90;;;6.90;99.90;;;;;;4896031;29;20217;-85
2023/04/30 02:00:59;;;;;;;19.57;11.23;;;6.70;99.90;;;;;;4896568;29;20230;-84
2023/04/30 02:03:32;;;;;;;16.27;10.50;;;6.70;99.90;;;;;;4897159;29;20257;-84
2023/04/30 02:06:05;;;;;;;17.77;10.67;;;6.70;99.90;;;;;;4912797;29;20238;-83
2023/04/30 02:08:39;;;;;;;14.83;10.23;;;6.60;99.90;;;;;;4894136;29;20236;-83
2023/04/30 02:11:21;;;;;;;17.40;10.07;;;6.70;99.90;;;;;;4896499;29;20202;-83
2023/04/30 02:13:57;;;;;;;17.17;10.53;;;6.60;99.90;;;;;;4910954;29;20292;-83
2023/04/30 02:16:28;;;;;;;15.23;9.97;;;6.50;99.90;;;;;;4894381;29;20313;-86
2023/04/30 02:18:55;;;;;;;19.97;11.53;;;6.50;99.90;;;;;;4913372;29;20219;-85
2023/04/30 02:21:22;;;;;;;20.67;10.63;;;6.50;99.90;;;;;;4902906;29;20214;-83
2023/04/30 02:23:49;;;;;;;16.50;10.47;;;6.40;99.90;;;;;;4914272;29;20217;-84
2023/04/30 02:26:15;;;;;;;17.63;10.13;;;6.40;99.90;;;;;;4913457;29;20213;-84
2023/04/30 02:28:42;;;;;;;18.70;10.83;;;6.40;99.90;;;;;;4913800;29;20232;-86
2023/04/30 02:31:09;;;;;;;19.43;11.07;;;6.40;99.90;;;;;;4913026;29;20316;-83
2023/04/30 02:33:36;;;;;;;21.73;10.90;;;6.40;99.90;;;;;;4913364;29;20628;-83
2023/04/30 02:36:03;;;;;;;18.97;11.03;;;6.40;99.90;;;;;;4912907;29;20293;-82
2023/04/30 02:38:30;;;;;;;19.10;11.30;;;6.30;99.90;;;;;;4916472;29;20238;-83
2023/04/30 02:40:56;;;;;;;20.37;10.97;;;6.30;99.90;;;;;;4913124;29;20585;-85
2023/04/30 02:43:33;;;;;;;20.33;11.37;;;6.30;99.90;;;;;;4911191;29;20662;-83
2023/04/30 02:46:10;;;;;;;21.17;11.17;;;6.30;99.90;;;;;;4899958;29;20229;-83
2023/04/30 02:48:37;;;;;;;17.10;10.67;;;6.30;99.90;;;;;;4911217;29;20862;-83
2023/04/30 02:51:15;;;;;;;19.20;11.70;;;6.30;99.90;;;;;;4913891;29;20210;-83
2023/04/30 02:53:45;;;;;;;18.20;10.77;;;6.20;99.90;;;;;;4907562;29;20217;-85
2023/04/30 02:56:13;;;;;;;21.77;11.83;;;6.20;99.90;;;;;;4918568;29;20219;-83
2023/04/30 02:58:42;;;;;;;17.10;10.00;;;6.30;99.90;;;;;;4912560;29;20226;-83
2023/04/30 03:01:09;;;;;;;18.90;11.13;;;6.20;99.90;;;;;;4911358;29;20224;-83
2023/04/30 03:03:42;;;;;;;20.37;11.83;;;6.20;99.90;;;;;;4893921;29;20554;-83
2023/04/30 03:06:11;;;;;;;20.00;10.90;;;6.20;99.90;;;;;;4903124;29;20304;-85
2023/04/30 03:08:38;;;;;;;21.83;11.17;;;6.20;99.90;;;;;;4916357;29;20230;-83
2023/04/30 03:11:05;;;;;;;19.30;10.40;;;6.10;99.90;;;;;;4916288;29;20276;-84
2023/04/30 03:13:32;;;;;;;21.07;11.07;;;6.10;99.90;;;;;;4916422;29;20700;-84
2023/04/30 03:16:03;;;;;;;16.93;10.87;;;6.10;99.90;;;;;;4918338;29;20250;-85
2023/04/30 03:18:30;;;;;;;17.87;10.13;;;6.00;99.90;;;;;;4896438;29;20626;-85
2023/04/30 03:20:57;;;;;;;19.23;10.80;;;6.00;99.90;;;;;;4922891;29;20209;-85
2023/04/30 03:23:26;;;;;;;18.40;9.80;;;6.00;99.90;;;;;;4916222;29;20750;-85
2023/04/30 03:25:53;;;;;;;15.87;10.03;;;6.00;99.90;;;;;;4918185;29;20210;-85
2023/04/30 03:28:20;;;;;;;20.97;11.67;;;5.90;99.90;;;;;;4917709;29;20594;-85
2023/04/30 03:30:47;;;;;;;22.97;13.13;;;5.90;99.90;;;;;;4915580;29;20625;-86
2023/04/30 03:33:15;;;;;;;20.33;11.57;;;5.90;99.90;;;;;;4916079;29;20742;-85
2023/04/30 03:35:42;;;;;;;18.60;12.00;;;5.90;99.90;;;;;;4898830;29;20224;-85
2023/04/30 03:38:09;;;;;;;22.77;13.40;;;5.90;99.90;;;;;;4914484;29;20222;-85
2023/04/30 03:40:36;;;;;;;20.13;11.17;;;5.80;99.90;;;;;;4915682;29;20675;-84
2023/04/30 03:43:03;;;;;;;19.43;12.60;;;5.80;99.90;;;;;;4912352;29;20230;-85
2023/04/30 03:45:30;;;;;;;23.77;13.10;;;5.70;99.90;;;;;;4918282;29;20694;-85
2023/04/30 03:47:57;;;;;;;21.67;12.40;;;5.70;99.90;;;;;;4899469;29;20212;-83
2023/04/30 03:50:24;;;;;;;23.30;12.20;;;5.70;99.90;;;;;;4915913;29;20281;-84
2023/04/30 03:52:51;;;;;;;22.63;12.40;;;5.70;99.90;;;;;;4914125;29;20237;-86
2023/04/30 03:55:18;;;;;;;20.97;11.97;;;5.70;99.90;;;;;;4906439;29;20231;-84
2023/04/30 03:57:45;;;;;;;22.77;12.03;;;5.70;99.90;;;;;;4915773;29;20616;-84
2023/04/30 04:00:12;;;;;;;20.00;12.17;;;5.60;99.90;;;;;;4919104;29;20291;-83
2023/04/30 04:02:40;;;;;;;17.67;11.40;;;5.60;99.90;;;;;;4915717;29;20622;-83
2023/04/30 04:05:07;;;;;;;18.67;11.33;;;5.50;99.90;;;;;;4917361;29;20242;-83
2023/04/30 04:07:33;;;;;;;21.27;11.77;;;5.50;99.90;;;;;;4915436;29;20285;-86
2023/04/30 04:10:01;;;;;;;18.67;11.27;;;5.50;99.90;;;;;;4912854;29;20241;-84
2023/04/30 04:12:29;;;;;;;22.67;12.00;;;5.50;99.90;;;;;;4913577;29;20225;-84
2023/04/30 04:14:56;;;;;;;19.27;12.47;;;5.50;99.90;;;;;;4914324;29;20982;-83
2023/04/30 04:17:22;;;;;;;20.73;11.77;;;5.50;99.90;;;;;;4914788;29;20301;-86
2023/04/30 04:19:50;;;;;;;22.57;12.00;;;5.50;99.90;;;;;;4907845;29;20309;-86
2023/04/30 04:22:18;;;;;;;18.13;11.57;;;5.40;99.90;;;;;;4915859;29;20205;-85
2023/04/30 04:24:44;;;;;;;18.83;11.80;;;5.40;99.90;;;;;;4917038;29;20754;-86
2023/04/30 04:27:11;;;;;;;18.03;11.87;;;5.40;99.90;;;;;;4926174;29;20230;-84
2023/04/30 04:29:38;;;;;;;19.70;12.23;;;5.40;99.90;;;;;;4927698;29;20706;-84
2023/04/30 04:32:05;;;;;;;20.87;12.33;;;5.40;99.90;;;;;;4916250;29;20667;-85
2023/04/30 04:34:32;;;;;;;19.03;10.40;;;5.50;99.90;;;;;;4912522;29;20319;-84
2023/04/30 04:37:00;;;;;;;24.40;11.43;;;5.50;99.90;;;;;;4920492;29;20667;-84
2023/04/30 04:39:27;;;;;;;17.83;11.30;;;5.50;99.90;;;;;;4912833;29;20217;-84
2023/04/30 04:41:54;;;;;;;22.03;10.93;;;5.50;99.90;;;;;;4912742;29;20218;-84
2023/04/30 04:44:21;;;;;;;20.33;11.27;;;5.60;99.90;;;;;;4897583;29;20249;-84
2023/04/30 04:46:52;;;;;;;19.90;11.53;;;5.60;99.90;;;;;;4920205;29;20218;-85
2023/04/30 04:49:19;;;;;;;16.53;10.00;;;5.60;99.90;;;;;;4921656;29;20293;-86
2023/04/30 04:51:46;;;;;;;16.70;10.63;;;5.60;99.90;;;;;;4930100;29;20281;-83
2023/04/30 04:54:13;;;;;;;18.97;10.67;;;5.60;99.90;;;;;;4935289;29;20232;-84
2023/04/30 04:56:40;;;;;;;18.93;12.17;;;5.70;99.90;;;;;;4925299;29;20217;-84
2023/04/30 04:59:07;;;;;;;21.67;11.07;;;5.70;99.90;;;;;;4929049;29;20267;-83
2023/04/30 05:01:33;;;;;;;19.40;11.00;;;5.70;99.90;;;;;;4917534;29;20296;-83
2023/04/30 05:04:00;;;;;;;14.23;9.60;;;5.80;99.90;;;;;;4919922;29;20216;-84
2023/04/30 05:06:27;;;;;;;14.43;9.70;;;5.80;99.90;;;;;;4902797;29;22566;-84
2023/04/30 05:08:54;;;;;;;16.47;9.60;;;5.90;99.90;;;;;;4898011;29;20245;-84
2023/04/30 05:11:21;;;;;;;18.50;11.03;;;5.90;99.90;;;;;;4896604;29;20216;-84
2023/04/30 05:13:48;;;;;;;19.60;12.13;;;5.90;99.90;;;;;;4897471;29;20222;-85
2023/04/30 05:16:15;;;;;;;17.63;11.00;;;6.00;99.90;;;;;;4896818;29;20265;-84
2023/04/30 05:18:42;;;;;;;19.00;11.50;;;6.00;99.90;;;;;;4914338;29;20236;-84
2023/04/30 05:21:09;;;;;;;20.93;10.93;;;6.10;99.90;;;;;;4901383;29;20206;-85
2023/04/30 05:23:36;;;;;;;19.77;11.50;;;6.10;99.90;;;;;;4913746;29;20212;-85
2023/04/30 05:26:03;;;;;;;21.43;12.13;;;6.20;99.90;;;;;;4895675;29;20212;-84
2023/04/30 05:28:30;;;;;;;19.10;10.97;;;6.20;99.90;;;;;;4912233;29;20265;-86
2023/04/30 05:30:57;;;;;;;19.30;11.37;;;6.30;99.90;;;;;;4915783;29;20232;-86
2023/04/30 05:33:23;;;;;;;18.57;12.40;;;6.30;99.90;;;;;;4914566;29;20320;-84
2023/04/30 05:35:52;;;;;;;18.93;12.80;;;6.40;99.90;;;;;;4913471;29;20297;-86
2023/04/30 05:38:19;;;;;;;20.23;12.23;;;6.40;99.90;;;;;;4894995;29;20209;-86
2023/04/30 05:40:46;;;;;;;26.00;14.17;;;6.50;99.90;;;;;;4893638;29;20238;-84
2023/04/30 05:43:13;;;;;;;26.80;14.00;;;6.50;99.90;;;;;;4910030;29;20222;-87
2023/04/30 05:45:40;;;;;;;21.07;13.43;;;6.60;99.90;;;;;;4918084;29;20210;-87
2023/04/30 05:48:06;;;;;;;19.67;12.80;;;6.70;99.90;;;;;;4912998;29;20206;-86
2023/04/30 05:50:33;;;;;;;21.23;12.87;;;6.70;99.90;;;;;;4893441;29;20353;-84
2023/04/30 05:53:00;;;;;;;26.60;14.83;;;6.70;99.90;;;;;;4913463;29;20209;-88
2023/04/30 05:55:27;;;;;;;24.37;13.77;;;6.80;99.90;;;;;;4912822;28;20287;-85
2023/04/30 05:57:53;;;;;;;25.40;14.47;;;6.90;99.90;;;;;;4910930;29;20245;-87
2023/04/30 06:00:20;;;;;;;36.70;18.10;;;7.00;99.90;;;;;;4912090;29;20238;-84
2023/04/30 06:02:47;;;;;;;22.47;13.93;;;7.40;99.90;;;;;;4904372;29;20308;-85
2023/04/30 06:05:14;;;;;;;19.90;11.17;;;8.50;99.90;;;;;;4914346;29;20214;-84
2023/04/30 06:07:42;;;;;;;19.73;9.97;;;9.80;99.90;;;;;;4893772;29;20201;-83
2023/04/30 06:10:09;;;;;;;15.40;8.53;;;11.20;99.90;;;;;;4916077;29;20232;-84
2023/04/30 06:12:36;;;;;;;12.07;8.10;;;12.40;99.90;;;;;;4912293;29;20264;-84
2023/04/30 06:15:03;;;;;;;12.60;7.43;;;13.50;99.90;;;;;;4900982;29;20217;-84
2023/04/30 06:17:30;;;;;;;7.88;6.82;;;14.40;99.90;;;;;;4922133;29;20280;-82
2023/04/30 06:19:59;;;;;;;19.02;8.18;;;15.40;99.90;;;;;;4922202;29;20577;-83
2023/04/30 06:22:26;;;;;;;10.77;6.80;;;16.30;99.90;;;;;;4916766;29;20205;-83
2023/04/30 06:24:53;;;;;;;9.82;6.72;;;16.90;99.90;;;;;;4916966;29;20296;-86
2023/04/30 06:27:19;;;;;;;14.38;7.93;;;17.40;99.90;;;;;;4918428;29;20212;-84
2023/04/30 06:29:46;;;;;;;11.82;6.93;;;17.90;99.90;;;;;;4919019;29;20267;-84
2023/04/30 06:32:13;;;;;;;9.18;6.15;;;18.30;99.90;;;;;;4917486;29;20309;-85
2023/04/30 06:34:40;;;;;;;11.65;6.50;;;18.80;99.90;;;;;;4917298;29;20204;-84
2023/04/30 06:37:06;;;;;;;8.43;6.57;;;19.20;99.90;;;;;;4916818;29;20253;-85
2023/04/30 06:39:33;;;;;;;8.63;5.68;;;19.50;99.90;;;;;;4901906;29;20314;-83
2023/04/30 06:42:00;;;;;;;7.97;6.07;;;19.80;99.90;;;;;;4904993;29;20734;-83
2023/04/30 06:44:27;;;;;;;8.35;6.32;;;20.10;99.90;;;;;;4918491;29;20308;-84
2023/04/30 06:46:54;;;;;;;8.55;5.88;;;20.60;99.90;;;;;;4914216;29;20292;-83
2023/04/30 06:49:21;;;;;;;8.68;6.05;;;20.70;99.90;;;;;;4919661;29;20316;-84
2023/04/30 06:51:48;;;;;;;8.57;6.38;;;20.80;99.90;;;;;;4922425;29;20240;-84
2023/04/30 06:54:15;;;;;;;6.82;5.20;;;20.70;99.90;;;;;;4899329;29;20250;-84
2023/04/30 06:56:42;;;;;;;9.02;5.63;;;20.50;99.90;;;;;;4895392;29;20292;-84
2023/04/30 06:59:09;;;;;;;6.90;5.47;;;20.20;99.90;;;;;;4918279;29;20226;-82
2023/04/30 07:01:36;;;;;;;10.70;4.80;;;19.90;99.90;;;;;;4908454;29;20224;-82
2023/04/30 07:04:03;;;;;;;9.93;5.10;;;19.70;99.90;;;;;;4917449;29;20301;-82
2023/04/30 07:06:29;;;;;;;8.23;5.13;;;19.40;99.90;;;;;;4916615;29;20288;-82
2023/04/30 07:08:56;;;;;;;9.23;4.82;;;18.90;99.90;;;;;;4915761;29;20236;-81
2023/04/30 07:11:23;;;;;;;10.00;4.97;;;19.10;99.90;;;;;;4916403;29;20289;-83
2023/04/30 07:13:50;;;;;;;8.27;4.82;;;19.10;99.90;;;;;;4916829;29;20247;-81
2023/04/30 07:16:17;;;;;;;9.95;5.25;;;19.30;99.90;;;;;;4916462;29;20356;-82
2023/04/30 07:18:43;;;;;;;8.23;4.93;;;19.60;99.90;;;;;;4896293;29;20285;-82
2023/04/30 07:21:10;;;;;;;11.70;5.20;;;19.90;99.90;;;;;;4920085;29;20728;-80
2023/04/30 07:23:37;;;;;;;11.23;5.40;;;20.20;99.90;;;;;;4919125;29;20288;-81
2023/04/30 07:26:04;;;;;;;11.35;5.15;;;20.30;99.90;;;;;;4914843;29;20297;-81
2023/04/30 07:28:30;;;;;;;8.35;4.93;;;20.50;99.90;;;;;;4919883;29;20612;-81
2023/04/30 07:30:57;;;;;;;8.63;4.85;;;20.40;99.90;;;;;;4914865;29;20236;-82
2023/04/30 07:33:24;;;;;;;6.38;4.63;;;19.90;99.90;;;;;;4915827;29;20565;-81
2023/04/30 07:35:51;;;;;;;7.80;4.40;;;19.90;99.90;;;;;;4895079;29;20202;-81
2023/04/30 07:38:18;;;;;;;6.75;4.20;;;19.70;99.90;;;;;;4913902;29;20234;-82
2023/04/30 07:40:45;;;;;;;7.15;4.38;;;19.50;99.90;;;;;;4919956;29;20205;-83
2023/04/30 07:43:11;;;;;;;7.47;4.80;;;19.60;99.90;;;;;;4916672;29;20214;-81
2023/04/30 07:45:39;;;;;;;9.20;4.90;;;19.70;99.90;;;;;;4897196;29;20221;-82
2023/04/30 07:48:06;;;;;;;7.95;4.93;;;19.70;99.90;;;;;;4900137;29;20221;-83
2023/04/30 07:50:33;;;;;;;6.13;4.45;;;19.30;99.90;;;;;;4898161;29;20244;-82
2023/04/30 07:53:01;;;;;;;7.40;4.70;;;19.50;99.90;;;;;;4897851;29;20228;-82
2023/04/30 07:55:28;;;;;;;6.43;4.57;;;19.70;99.90;;;;;;4898183;29;20265;-83
2023/04/30 07:57:54;;;;;;;6.72;4.50;;;19.70;99.90;;;;;;4912281;29;20681;-81
2023/04/30 08:00:21;;;;;;;7.90;4.53;;;19.80;99.90;;;;;;4915412;29;20228;-82
2023/04/30 08:02:49;;;;;;;9.55;4.22;;;20.10;99.90;;;;;;4914584;29;20962;-79
2023/04/30 08:05:16;;;;;;;9.98;4.07;;;20.30;99.90;;;;;;4919265;29;20305;-79
2023/04/30 08:07:43;;;;;;;7.45;4.57;;;20.40;99.90;;;;;;4912266;29;20310;-79
2023/04/30 08:10:10;;;;;;;9.73;5.10;;;20.30;99.90;;;;;;4912127;29;20281;-78
2023/04/30 08:12:38;;;;;;;7.75;4.47;;;20.30;99.90;;;;;;4911472;29;20296;-77
2023/04/30 08:15:06;;;;;;;9.60;5.30;;;19.90;99.90;;;;;;4909201;29;20264;-78
2023/04/30 08:17:33;;;;;;;6.97;4.30;;;20.10;99.90;;;;;;4909879;29;20213;-82
2023/04/30 08:20:01;;;;;;;9.32;4.47;;;20.10;99.90;;;;;;4911791;29;20554;-86
2023/04/30 08:22:28;;;;;;;8.50;4.30;;;20.00;99.90;;;;;;4912008;29;20220;-80
2023/04/30 08:24:55;;;;;;;10.95;4.78;;;20.10;99.90;;;;;;4913169;29;20592;-78
2023/04/30 08:27:22;;;;;;;10.32;4.72;;;20.10;99.90;;;;;;4910089;29;20206;-83
2023/04/30 08:29:49;;;;;;;7.15;4.40;;;20.30;99.90;;;;;;4914693;29;20234;-82
2023/04/30 08:32:18;;;;;;;8.48;4.28;;;20.40;99.90;;;;;;4913041;29;20237;-79
2023/04/30 08:34:45;;;;;;;8.43;4.50;;;20.60;99.90;;;;;;4912900;29;20617;-82
2023/04/30 08:37:12;;;;;;;7.00;4.38;;;20.50;99.90;;;;;;4911594;29;20300;-81
2023/04/30 08:39:39;;;;;;;10.07;4.43;;;20.50;99.90;;;;;;4896468;29;20214;-82
2023/04/30 08:42:08;;;;;;;7.05;3.85;;;20.70;99.90;;;;;;4912708;29;20209;-81
2023/04/30 08:44:38;;;;;;;9.90;4.50;;;20.80;99.90;;;;;;4894522;29;20253;-81
2023/04/30 08:47:07;;;;;;;5.60;3.70;;;20.80;99.90;;;;;;4909257;29;20214;-81
2023/04/30 08:49:35;;;;;;;7.13;3.28;;;20.80;99.90;;;;;;4913791;29;20206;-81
2023/04/30 08:52:02;;;;;;;5.70;3.45;;;20.40;99.90;;;;;;4893871;29;20550;-81
2023/04/30 08:54:34;;;;;;;7.43;4.10;;;20.30;99.90;;;;;;4913388;29;20225;-80
2023/04/30 08:57:01;;;;;;;9.27;4.60;;;19.80;99.90;;;;;;4911451;29;20687;-81
2023/04/30 08:59:28;;;;;;;8.18;4.13;;;19.50;99.90;;;;;;4913050;29;20253;-81
2023/04/30 09:01:55;;;;;;;7.35;3.80;;;19.20;99.90;;;;;;4901312;29;20305;-81
2023/04/30 09:04:22;;;;;;;5.68;3.63;;;19.30;99.90;;;;;;4911186;29;20237;-80
2023/04/30 09:06:52;;;;;;;8.15;3.95;;;19.60;99.90;;;;;;4901460;29;20245;-81
2023/04/30 09:09:19;;;;;;;9.45;4.00;;;19.80;99.90;;;;;;4913332;29;20572;-82
2023/04/30 09:11:45;;;;;;;6.70;3.97;;;19.90;99.90;;;;;;4910405;29;20314;-81
2023/04/30 09:14:12;;;;;;;9.20;4.25;;;19.80;99.90;;;;;;4897658;29;20228;-81
2023/04/30 09:16:47;;;;;;;6.00;3.75;;;19.70;99.90;;;;;;4905518;29;20213;-80
2023/04/30 09:19:25;;;;;;;5.85;3.10;;;19.60;99.90;;;;;;4912792;29;20285;-82
2023/04/30 09:21:55;;;;;;;4.88;3.30;;;19.50;99.90;;;;;;4910973;29;20220;-81
2023/04/30 09:24:22;;;;;;;9.60;4.00;;;19.20;99.90;;;;;;4915902;29;20635;-78
2023/04/30 09:26:50;;;;;;;7.93;4.00;;;19.20;99.90;;;;;;4911585;29;20652;-79
2023/04/30 09:29:17;;;;;;;5.53;3.72;;;19.30;99.90;;;;;;4910881;29;20268;-78
2023/04/30 09:31:45;;;;;;;8.88;3.90;;;19.20;99.90;;;;;;4909005;29;20724;-79
2023/04/30 09:34:13;;;;;;;453.52;157.15;;;19.00;99.90;;;;;;4912384;29;20205;-81
2023/04/30 09:36:54;;;;;;;34.85;11.43;;;18.90;99.90;;;;;;4912625;29;20317;-76
2023/04/30 09:39:21;;;;;;;8.68;4.30;;;18.80;99.90;;;;;;4911578;29;20244;-79
2023/04/30 09:41:50;;;;;;;8.38;4.43;;;18.90;99.90;;;;;;4910479;29;20665;-80
2023/04/30 09:44:31;;;;;;;5.18;3.90;;;19.00;99.90;;;;;;4911576;29;20234;-80
2023/04/30 09:46:58;;;;;;;6.95;4.18;;;19.00;99.90;;;;;;4911983;29;20233;-80
2023/04/30 09:49:26;;;;;;;6.85;3.95;;;19.00;99.90;;;;;;4912644;29;20197;-80
2023/04/30 09:51:58;;;;;;;7.95;4.10;;;19.00;99.90;;;;;;4912751;29;20237;-80
2023/04/30 09:54:30;;;;;;;5.22;4.15;;;19.20;99.90;;;;;;4910888;29;20344;-79
2023/04/30 09:57:01;;;;;;;7.32;4.00;;;19.20;99.90;;;;;;4912928;29;20237;-79
2023/04/30 09:59:34;;;;;;;7.93;4.50;;;19.10;99.90;;;;;;4912147;29;20226;-79
2023/04/30 10:02:03;;;;;;;6.97;4.57;;;19.20;99.90;;;;;;4892412;29;20212;-78
2023/04/30 10:04:40;;;;;;;7.60;3.85;;;19.20;99.90;;;;;;4912552;29;20202;-80
2023/04/30 10:07:18;;;;;;;7.22;4.30;;;19.30;99.90;;;;;;4912414;29;20316;-80
2023/04/30 10:10:04;;;;;;;5.85;4.30;;;19.30;99.90;;;;;;4912844;29;20213;-79
2023/04/30 10:12:49;;;;;;;8.57;5.05;;;19.30;99.90;;;;;;4914366;29;20210;-81
2023/04/30 10:15:27;;;;;;;7.82;4.10;;;19.10;99.90;;;;;;4914802;29;20233;-80
2023/04/30 10:18:00;;;;;;;7.15;4.20;;;19.10;99.90;;;;;;4897219;29;20665;-80
2023/04/30 10:20:27;;;;;;;8.55;4.80;;;19.00;99.90;;;;;;4916249;29;20213;-79
2023/04/30 10:22:55;;;;;;;5.90;4.30;;;19.10;99.90;;;;;;4917609;29;20216;-80
2023/04/30 10:25:22;;;;;;;7.95;4.35;;;19.10;99.90;;;;;;4897656;29;20611;-80
2023/04/30 10:27:50;;;;;;;5.78;4.45;;;19.20;99.90;;;;;;4910115;29;20702;-79
2023/04/30 10:30:17;;;;;;;7.60;4.30;;;19.30;99.90;;;;;;4903870;29;20412;-80
2023/04/30 10:33:04;;;;;;;6.90;3.92;;;19.30;99.90;;;;;;4912509;29;20214;-80
2023/04/30 10:35:40;;;;;;;7.80;4.25;;;19.40;99.90;;;;;;4911504;29;20667;-80
2023/04/30 10:38:15;;;;;;;8.07;4.28;;;19.40;99.90;;;;;;4911994;29;20551;-81
2023/04/30 10:40:46;;;;;;;7.97;4.50;;;19.30;99.90;;;;;;4894375;29;20635;-81
2023/04/30 10:43:12;;;;;;;7.03;4.20;;;19.40;99.90;;;;;;4911806;29;20218;-81
2023/04/30 10:45:42;;;;;;;8.85;3.90;;;19.30;99.90;;;;;;4910121;29;20221;-81
2023/04/30 10:49:00;;;;;;;7.03;3.80;;;19.40;99.90;;;;;;4912206;29;20535;-81
2023/04/30 10:55:08;;;;;;;26.70;10.57;;;19.00;99.90;;;;;;4874370;29;1063555;-80
2023/04/30 11:01:55;;;;;;;7.05;3.90;;;18.90;99.90;;;;;;4870485;29;20219;-80
2023/04/30 11:05:35;;;;;;;;;;;;;;;;;;;;;
2023/04/30 11:08:31;;;;;;;6.00;3.00;;;19.00;99.90;;;;;;4800151;29;20746;-80
2023/04/30 11:11:00;;;;;;;5.72;2.97;;;19.00;99.90;;;;;;4801384;29;20290;-80
2023/04/30 11:14:00;;;;;;;4.93;3.22;;;19.00;99.90;;;;;;4796665;29;20210;-81
2023/04/30 11:16:32;;;;;;;4.53;3.17;;;19.30;99.90;;;;;;4834687;29;20914;-79
2023/04/30 11:19:10;;;;;;;7.80;3.85;;;19.30;99.90;;;;;;4859949;29;20219;-81
2023/04/30 11:22:02;;;;;;;6.13;3.05;;;19.40;99.90;;;;;;4872350;29;20215;-80
2023/04/30 11:24:59;;;;;;;4.43;3.30;;;19.50;99.90;;;;;;4855438;29;20243;-81
2023/04/30 11:35:03;;;;;;;5.63;3.00;;;19.60;99.90;;;;;;4877228;29;20197;-82
2023/04/30 11:38:16;;;;;;;6.30;3.60;;;19.70;99.90;;;;;;4898155;29;20218;-81
2023/04/30 11:40:57;;;;;;;6.18;3.00;;;19.70;99.90;;;;;;4884356;29;20217;-81
2023/04/30 11:43:28;;;;;;;6.00;2.88;;;19.70;99.90;;;;;;4913462;29;20551;-80
2023/04/30 11:46:16;;;;;;;4.45;2.95;;;19.70;99.90;;;;;;4914220;29;20305;-81
2023/04/30 11:48:44;;;;;;;4.25;2.90;;;19.80;99.90;;;;;;4895798;29;20229;-81
2023/04/30 11:51:14;;;;;;;4.80;3.17;;;19.80;99.90;;;;;;4910087;29;20285;-80
2023/04/30 11:53:41;;;;;;;5.53;2.95;;;20.00;99.90;;;;;;4893091;29;20241;-79
2023/04/30 11:56:08;;;;;;;7.70;3.30;;;20.20;99.90;;;;;;4914421;29;20627;-80
2023/04/30 11:58:39;;;;;;;7.72;3.40;;;20.40;99.90;;;;;;4915233;29;20205;-80
2023/04/30 12:01:08;;;;;;;5.00;3.30;;;20.50;99.90;;;;;;4905217;29;20254;-80
2023/04/30 12:03:54;;;;;;;4.68;2.58;;;20.60;99.90;;;;;;4915468;29;20216;-80
2023/04/30 12:06:26;;;;;;;6.25;3.20;;;20.60;99.90;;;;;;4912634;29;20253;-79
2023/04/30 12:08:58;;;;;;;6.32;2.80;;;20.60;99.90;;;;;;4914769;29;20228;-80
2023/04/30 12:11:27;;;;;;;6.82;3.28;;;20.60;99.90;;;;;;4911706;29;20623;-80
2023/04/30 12:14:03;;;;;;;6.95;3.05;;;20.40;99.90;;;;;;4913784;29;20273;-81
2023/04/30 12:16:44;;;;;;;4.20;2.58;;;20.30;99.90;;;;;;4914368;29;20649;-80
2023/04/30 12:19:12;;;;;;;4.00;2.60;;;20.40;99.90;;;;;;4913658;29;20221;-82
2023/04/30 12:21:41;;;;;;;5.28;2.83;;;20.30;99.90;;;;;;4915826;29;20210;-80
2023/04/30 12:24:09;;;;;;;6.32;2.95;;;20.40;99.90;;;;;;4915189;29;20301;-81
2023/04/30 12:26:38;;;;;;;4.97;2.78;;;20.50;99.90;;;;;;4905498;29;20237;-80
2023/04/30 12:29:10;;;;;;;2.63;2.33;;;20.50;99.90;;;;;;4911519;29;20245;-80
2023/04/30 12:31:42;;;;;;;8.45;2.88;;;20.60;99.90;;;;;;4912945;29;20240;-82
2023/04/30 12:34:12;;;;;;;7.47;2.88;;;20.70;99.90;;;;;;4917243;29;20546;-81
2023/04/30 12:36:43;;;;;;;7.22;2.80;;;20.80;99.90;;;;;;4914193;29;20206;-82
2023/04/30 12:39:14;;;;;;;5.43;2.78;;;20.80;99.90;;;;;;4914458;29;20210;-80
2023/04/30 12:41:44;;;;;;;4.78;2.42;;;20.70;99.90;;;;;;4896287;29;20339;-82
2023/04/30 12:44:22;;;;;;;6.00;2.90;;;20.80;99.90;;;;;;4910475;29;20281;-81
2023/04/30 12:46:51;;;;;;;3.97;2.38;;;20.70;99.90;;;;;;4914658;29;20264;-83
2023/04/30 12:49:23;;;;;;;4.55;2.42;;;20.80;99.90;;;;;;4914665;29;20205;-82
2023/04/30 12:51:50;;;;;;;4.18;2.95;;;20.90;99.90;;;;;;4913987;29;20244;-82
2023/04/30 12:54:34;;;;;;;5.75;3.50;;;20.90;99.90;;;;;;4914024;29;20314;-82
2023/04/30 12:57:04;;;;;;;5.47;2.78;;;20.90;99.90;;;;;;4909532;29;20224;-81
2023/04/30 12:59:36;;;;;;;6.57;3.33;;;21.00;99.90;;;;;;4916112;29;20226;-81
2023/04/30 13:02:11;;;;;;;8.23;3.22;;;20.90;99.90;;;;;;4909939;29;20616;-80
2023/04/30 13:04:40;;;;;;;8.40;3.30;;;20.80;99.90;;;;;;4893611;29;20213;-81
2023/04/30 13:07:07;;;;;;;6.60;3.15;;;20.80;99.90;;;;;;4912443;29;20220;-81
2023/04/30 13:09:36;;;;;;;3.95;2.92;;;20.80;99.90;;;;;;4914014;29;20701;-80
2023/04/30 13:12:03;;;;;;;7.72;3.33;;;21.00;99.90;;;;;;4913763;29;20595;-79
2023/04/30 13:14:31;;;;;;;5.90;2.87;;;21.00;99.90;;;;;;4912684;29;20459;-84